createdAt,value
2017-08-12T00:00:12.391Z,66.41
2017-08-12T00:01:12.693Z,66.22
2017-08-12T00:02:12.368Z,66.22
2017-08-12T00:03:12.667Z,66.41
2017-08-12T00:04:12.653Z,66.61
2017-08-12T00:05:12.647Z,66.61
2017-08-12T00:06:12.628Z,66.61
2017-08-12T00:07:12.617Z,66.51
2017-08-12T00:08:12.605Z,66.8
2017-08-12T00:09:12.591Z,66.51
2017-08-12T00:10:12.579Z,66.51
2017-08-12T00:11:12.258Z,66.61
2017-08-12T00:12:12.562Z,66.32
2017-08-12T00:13:12.237Z,67.08
2017-08-12T00:14:12.217Z,66.61
2017-08-12T00:15:12.203Z,66.89
2017-08-12T00:16:12.202Z,67.18
2017-08-12T00:17:12.177Z,67.27
2017-08-12T00:18:12.167Z,67.18
2017-08-12T00:19:12.470Z,67.18
2017-08-12T00:20:12.455Z,66.8
2017-08-12T00:21:12.449Z,66.8
2017-08-12T00:22:12.425Z,67.18
2017-08-12T00:23:12.414Z,67.37
2017-08-12T00:24:12.409Z,67.47
2017-08-12T00:25:12.282Z,68.04
2017-08-12T00:26:12.387Z,67.85
2017-08-12T00:27:12.376Z,68.04
2017-08-12T00:28:12.041Z,68.04
2017-08-12T00:29:12.342Z,69.57
2017-08-12T00:30:12.328Z,70.72
2017-08-12T00:31:12.321Z,71.77
2017-08-12T00:32:12.304Z,71.87
2017-08-12T00:33:12.294Z,72.34
2017-08-12T00:34:11.970Z,73.59
2017-08-12T00:35:11.959Z,73.97
2017-08-12T00:36:12.261Z,75.02
2017-08-12T00:37:12.240Z,74.74
2017-08-12T00:38:12.237Z,74.74
2017-08-12T00:39:12.216Z,76.65
2017-08-12T00:40:12.203Z,76.65
2017-08-12T00:41:11.885Z,76.65
2017-08-12T00:42:11.867Z,78.28
2017-08-12T00:43:12.166Z,78.95
2017-08-12T00:44:12.162Z,80.44
2017-08-12T00:45:12.145Z,80.77
2017-08-12T00:46:12.177Z,82.17
2017-08-12T00:47:12.117Z,82.54
2017-08-12T00:48:12.111Z,82.45
2017-08-12T00:49:11.791Z,83.03
2017-08-12T00:50:12.083Z,84.17
2017-08-12T00:51:12.069Z,83.89
2017-08-12T00:52:11.743Z,83.79
2017-08-12T00:53:12.039Z,85.03
2017-08-12T00:54:12.028Z,85.41
2017-08-12T00:55:12.023Z,85.99
2017-08-12T00:56:11.689Z,85.41
2017-08-12T00:57:11.990Z,85.8
2017-08-12T00:58:11.982Z,85.13
2017-08-12T00:59:11.655Z,84.94
2017-08-12T01:00:11.643Z,85.13
2017-08-12T01:01:11.941Z,84.27
2017-08-12T01:02:11.927Z,83.98
2017-08-12T01:03:11.601Z,83.5
2017-08-12T01:04:11.906Z,82.64
2017-08-12T01:05:11.893Z,81.88
2017-08-12T01:06:11.877Z,80.92
2017-08-12T01:07:11.864Z,80.92
2017-08-12T01:08:11.559Z,80.25
2017-08-12T01:09:11.837Z,80.06
2017-08-12T01:10:11.826Z,79.58
2017-08-12T01:11:11.557Z,79.58
2017-08-12T01:12:11.815Z,79
2017-08-12T01:13:11.788Z,77.95
2017-08-12T01:14:11.777Z,77.95
2017-08-12T01:15:11.770Z,77.76
2017-08-12T01:16:11.441Z,77.28
2017-08-12T01:17:11.740Z,76.9
2017-08-12T01:18:11.724Z,76.04
2017-08-12T01:19:11.709Z,75.66
2017-08-12T01:20:11.700Z,74.7
2017-08-12T01:21:11.684Z,74.99
2017-08-12T01:22:11.361Z,74.51
2017-08-12T01:23:11.665Z,74.13
2017-08-12T01:24:11.656Z,73.75
2017-08-12T01:25:11.633Z,73.46
2017-08-12T01:26:11.312Z,73.46
2017-08-12T01:27:11.607Z,72.6
2017-08-12T01:28:11.286Z,72.63
2017-08-12T01:29:11.582Z,72.34
2017-08-12T01:30:11.571Z,72.25
2017-08-12T01:31:11.552Z,72.44
2017-08-12T01:32:11.547Z,72.34
2017-08-12T01:33:11.220Z,71.77
2017-08-12T01:34:11.207Z,71.58
2017-08-12T01:35:11.198Z,71.87
2017-08-12T01:36:11.504Z,71.97
2017-08-12T01:37:11.479Z,71.48
2017-08-12T01:38:11.558Z,71.3
2017-08-12T01:39:11.475Z,71.3
2017-08-12T01:40:11.442Z,71.77
2017-08-12T01:41:11.427Z,71.3
2017-08-12T01:42:11.417Z,71.58
2017-08-12T01:43:11.407Z,71.48
2017-08-12T01:44:11.387Z,71.87
2017-08-12T01:45:11.073Z,72.06
2017-08-12T01:46:11.363Z,71.97
2017-08-12T01:47:11.041Z,72.06
2017-08-12T01:48:11.341Z,71.68
2017-08-12T01:49:11.017Z,71.48
2017-08-12T01:50:11.317Z,71.58
2017-08-12T01:51:10.987Z,71.77
2017-08-12T01:52:11.284Z,71.58
2017-08-12T01:53:11.273Z,71.97
2017-08-12T01:54:11.262Z,71.48
2017-08-12T01:55:11.247Z,71.68
2017-08-12T01:56:10.925Z,71.48
2017-08-12T01:57:11.226Z,71.01
2017-08-12T01:58:11.212Z,70.97
2017-08-12T01:59:11.196Z,70.81
2017-08-12T02:00:10.875Z,71.39
2017-08-12T02:01:11.170Z,71.45
2017-08-12T02:02:11.158Z,71.16
2017-08-12T02:03:11.147Z,71.87
2017-08-12T02:04:11.136Z,71.77
2017-08-12T02:05:11.121Z,71.93
2017-08-12T02:06:10.797Z,71.87
2017-08-12T02:07:10.779Z,72.5
2017-08-12T02:08:11.081Z,72.44
2017-08-12T02:09:11.072Z,72.5
2017-08-12T02:10:10.743Z,73.27
2017-08-12T02:11:10.734Z,73.27
2017-08-12T02:12:11.083Z,73.59
2017-08-12T02:13:10.707Z,73.46
2017-08-12T02:14:11.010Z,73.88
2017-08-12T02:15:10.991Z,73.55
2017-08-12T02:16:10.666Z,73.36
2017-08-12T02:17:10.968Z,73.4
2017-08-12T02:18:10.639Z,73.75
2017-08-12T02:19:10.944Z,74.41
2017-08-12T02:20:10.926Z,73.75
2017-08-12T02:21:10.607Z,73.55
2017-08-12T02:22:10.900Z,73.84
2017-08-12T02:23:10.887Z,74.55
2017-08-12T02:24:10.562Z,74.32
2017-08-12T02:25:10.865Z,73.94
2017-08-12T02:26:10.849Z,74.16
2017-08-12T02:27:10.841Z,73.94
2017-08-12T02:28:10.513Z,74.04
2017-08-12T02:29:10.812Z,73.84
2017-08-12T02:30:10.798Z,73.84
2017-08-12T02:31:10.785Z,74.51
2017-08-12T02:32:10.773Z,73.36
2017-08-12T02:33:10.761Z,73.65
2017-08-12T02:34:10.437Z,73.75
2017-08-12T02:35:10.423Z,73.84
2017-08-12T02:36:10.729Z,73.75
2017-08-12T02:37:10.717Z,73.88
2017-08-12T02:38:10.386Z,73.84
2017-08-12T02:39:10.682Z,73.94
2017-08-12T02:40:10.363Z,73.94
2017-08-12T02:41:10.659Z,74.7
2017-08-12T02:42:10.650Z,74.61
2017-08-12T02:43:10.686Z,74.32
2017-08-12T02:44:10.620Z,74.9
2017-08-12T02:45:10.610Z,74.8
2017-08-12T02:46:10.595Z,74.7
2017-08-12T02:47:10.587Z,74.7
2017-08-12T02:48:10.571Z,74.8
2017-08-12T02:49:10.555Z,75.37
2017-08-12T02:50:10.541Z,74.9
2017-08-12T02:51:10.531Z,75.09
2017-08-12T02:52:10.528Z,75.09
2017-08-12T02:53:10.557Z,75.47
2017-08-12T02:54:10.491Z,75.56
2017-08-12T02:55:10.165Z,75.47
2017-08-12T02:56:10.154Z,75.95
2017-08-12T02:57:10.461Z,75.85
2017-08-12T02:58:10.443Z,75.95
2017-08-12T02:59:10.115Z,75.95
2017-08-12T03:00:10.418Z,75.95
2017-08-12T03:01:10.090Z,76.33
2017-08-12T03:02:10.391Z,76.23
2017-08-12T03:03:10.376Z,76.81
2017-08-12T03:04:10.365Z,76.71
2017-08-12T03:05:10.375Z,76.62
2017-08-12T03:06:10.030Z,76.62
2017-08-12T03:07:10.325Z,77.38
2017-08-12T03:08:10.310Z,76.62
2017-08-12T03:09:10.297Z,76.62
2017-08-12T03:10:09.975Z,77.09
2017-08-12T03:11:10.275Z,77.76
2017-08-12T03:12:10.263Z,77.95
2017-08-12T03:13:10.252Z,77.76
2017-08-12T03:14:10.236Z,77.67
2017-08-12T03:15:10.227Z,78.53
2017-08-12T03:16:09.903Z,78.72
2017-08-12T03:17:09.885Z,78.72
2017-08-12T03:18:09.879Z,78.72
2017-08-12T03:19:09.904Z,78.63
2017-08-12T03:20:09.853Z,78.43
2017-08-12T03:21:10.144Z,78.24
2017-08-12T03:22:10.128Z,79.39
2017-08-12T03:23:10.122Z,79.49
2017-08-12T03:24:10.114Z,79.68
2017-08-12T03:25:10.092Z,79.96
2017-08-12T03:26:10.078Z,80.25
2017-08-12T03:27:10.065Z,80.44
2017-08-12T03:28:10.050Z,80.54
2017-08-12T03:29:10.089Z,80.44
2017-08-12T03:30:10.024Z,80.16
2017-08-12T03:31:10.019Z,80.35
2017-08-12T03:32:09.999Z,79.77
2017-08-12T03:33:09.987Z,79.87
2017-08-12T03:34:09.659Z,79.96
2017-08-12T03:35:09.648Z,79.77
2017-08-12T03:36:09.954Z,79.49
2017-08-12T03:37:09.934Z,79.96
2017-08-12T03:38:09.922Z,80.16
2017-08-12T03:39:09.906Z,79.68
2017-08-12T03:40:09.894Z,79.2
2017-08-12T03:41:09.571Z,79.2
2017-08-12T03:42:09.553Z,79.49
2017-08-12T03:43:09.540Z,78.91
2017-08-12T03:44:09.840Z,79.2
2017-08-12T03:45:09.825Z,79.2
2017-08-12T03:46:09.811Z,78.72
2017-08-12T03:47:09.802Z,79
2017-08-12T03:48:09.474Z,79.87
2017-08-12T03:49:09.461Z,79.1
2017-08-12T03:50:09.448Z,79
2017-08-12T03:51:09.747Z,79.96
2017-08-12T03:52:09.732Z,79.58
2017-08-12T03:53:09.719Z,79.68
2017-08-12T03:54:09.394Z,79.77
2017-08-12T03:55:09.693Z,79.77
2017-08-12T03:56:09.678Z,79.68
2017-08-12T03:57:09.664Z,80.16
2017-08-12T03:58:09.655Z,79.96
2017-08-12T03:59:09.327Z,80.16
2017-08-12T04:00:09.622Z,79.68
2017-08-12T04:01:09.610Z,80.25
2017-08-12T04:02:09.289Z,80.54
2017-08-12T04:03:09.585Z,80.92
2017-08-12T04:04:09.571Z,80.54
2017-08-12T04:05:09.559Z,79.68
2017-08-12T04:06:09.234Z,80.63
2017-08-12T04:07:09.218Z,80.54
2017-08-12T04:08:09.203Z,81.21
2017-08-12T04:09:09.191Z,81.11
2017-08-12T04:10:09.493Z,81.21
2017-08-12T04:11:09.484Z,81.11
2017-08-12T04:12:09.466Z,82.17
2017-08-12T04:13:09.446Z,82.74
2017-08-12T04:14:09.438Z,82.07
2017-08-12T04:15:09.427Z,81.49
2017-08-12T04:16:09.412Z,81.97
2017-08-12T04:17:09.396Z,82.54
2017-08-12T04:18:09.071Z,82.83
2017-08-12T04:19:09.370Z,81.97
2017-08-12T04:20:09.405Z,81.78
2017-08-12T04:21:09.346Z,81.59
2017-08-12T04:22:09.326Z,81.11
2017-08-12T04:23:09.315Z,81.59
2017-08-12T04:24:08.990Z,81.59
2017-08-12T04:25:08.978Z,81.68
2017-08-12T04:26:09.274Z,81.88
2017-08-12T04:27:08.951Z,81.68
2017-08-12T04:28:09.245Z,81.88
2017-08-12T04:29:08.921Z,81.97
2017-08-12T04:30:08.912Z,81.68
2017-08-12T04:31:09.207Z,81.68
2017-08-12T04:32:09.198Z,81.02
2017-08-12T04:33:09.181Z,82.07
2017-08-12T04:34:09.172Z,82.64
2017-08-12T04:35:09.156Z,82.64
2017-08-12T04:36:09.143Z,82.93
2017-08-12T04:37:08.815Z,83.08
2017-08-12T04:38:09.120Z,83.69
2017-08-12T04:39:09.100Z,83.98
2017-08-12T04:40:08.773Z,83.79
2017-08-12T04:41:09.075Z,84.17
2017-08-12T04:42:09.061Z,85.13
2017-08-12T04:43:09.047Z,85.22
2017-08-12T04:44:08.719Z,85.13
2017-08-12T04:45:08.712Z,85.13
2017-08-12T04:46:08.691Z,85.03
2017-08-12T04:47:08.682Z,85.32
2017-08-12T04:48:08.977Z,85.13
2017-08-12T04:49:08.650Z,84.84
2017-08-12T04:50:08.639Z,85.8
2017-08-12T04:51:08.626Z,86.66
2017-08-12T04:52:08.924Z,85.8
2017-08-12T04:53:08.597Z,85.61
2017-08-12T04:54:08.898Z,86.37
2017-08-12T04:55:08.881Z,86.47
2017-08-12T04:56:08.871Z,86.66
2017-08-12T04:57:08.857Z,86.28
2017-08-12T04:58:08.526Z,86.37
2017-08-12T04:59:08.829Z,85.71
2017-08-12T05:00:08.814Z,86.08
2017-08-12T05:01:08.490Z,84.94
2017-08-12T05:02:08.793Z,85.89
2017-08-12T05:03:08.783Z,85.22
2017-08-12T05:04:08.767Z,85.22
2017-08-12T05:05:08.744Z,84.94
2017-08-12T05:06:08.421Z,85.41
2017-08-12T05:07:08.726Z,85.51
2017-08-12T05:08:08.707Z,85.57
2017-08-12T05:09:08.695Z,85.61
2017-08-12T05:10:08.371Z,85.18
2017-08-12T05:11:08.353Z,85.03
2017-08-12T05:12:08.655Z,85.28
2017-08-12T05:13:08.327Z,85.13
2017-08-12T05:14:08.316Z,85.18
2017-08-12T05:15:08.611Z,85.32
2017-08-12T05:16:08.651Z,84.84
2017-08-12T05:17:08.274Z,84.36
2017-08-12T05:18:08.569Z,85.13
2017-08-12T05:19:08.246Z,85.03
2017-08-12T05:20:08.232Z,84.84
2017-08-12T05:21:08.534Z,84.65
2017-08-12T05:22:08.523Z,83.98
2017-08-12T05:23:08.511Z,85.03
2017-08-12T05:24:08.181Z,84.46
2017-08-12T05:25:08.476Z,84.84
2017-08-12T05:26:08.151Z,84.7
2017-08-12T05:27:08.135Z,84.36
2017-08-12T05:28:08.125Z,84.61
2017-08-12T05:29:08.115Z,84.65
2017-08-12T05:30:08.100Z,84.32
2017-08-12T05:31:08.397Z,84.27
2017-08-12T05:32:08.069Z,84.65
2017-08-12T05:33:08.368Z,84.46
2017-08-12T05:34:08.043Z,83.94
2017-08-12T05:35:08.342Z,83.46
2017-08-12T05:36:08.331Z,84.27
2017-08-12T05:37:08.318Z,83.75
2017-08-12T05:38:07.994Z,83.31
2017-08-12T05:39:08.177Z,83.12
2017-08-12T05:40:08.271Z,83.79
2017-08-12T05:41:07.951Z,83.5
2017-08-12T05:42:08.002Z,83.79
2017-08-12T05:43:07.925Z,83.69
2017-08-12T05:44:08.227Z,82.64
2017-08-12T05:45:07.894Z,84.17
2017-08-12T05:46:07.881Z,83.12
2017-08-12T05:47:08.181Z,83.22
2017-08-12T05:48:08.182Z,82.93
2017-08-12T05:49:08.155Z,83.4
2017-08-12T05:50:07.826Z,83.89
2017-08-12T05:51:08.126Z,83.22
2017-08-12T05:52:07.803Z,83.12
2017-08-12T05:53:08.101Z,84.65
2017-08-12T05:54:07.778Z,83.98
2017-08-12T05:55:07.761Z,84.65
2017-08-12T05:56:08.077Z,84.17
2017-08-12T05:57:08.052Z,84.08
2017-08-12T05:58:08.087Z,84.46
2017-08-12T05:59:07.714Z,84.75
2017-08-12T06:00:08.008Z,84.27
2017-08-12T06:01:07.995Z,84.94
2017-08-12T06:02:07.667Z,84.36
2017-08-12T06:03:07.657Z,84.27
2017-08-12T06:04:07.960Z,84.65
2017-08-12T06:05:07.944Z,84.17
2017-08-12T06:06:07.926Z,84.17
2017-08-12T06:07:07.600Z,84.36
2017-08-12T06:08:07.586Z,83.89
2017-08-12T06:09:07.936Z,83.98
2017-08-12T06:10:07.557Z,83.22
2017-08-12T06:11:07.858Z,83.31
2017-08-12T06:12:07.844Z,83.22
2017-08-12T06:13:07.834Z,82.26
2017-08-12T06:14:07.505Z,80.54
2017-08-12T06:15:07.493Z,79.87
2017-08-12T06:16:07.482Z,79.49
2017-08-12T06:17:07.781Z,78.91
2017-08-12T06:18:07.454Z,78.14
2017-08-12T06:19:07.441Z,77.48
2017-08-12T06:20:07.785Z,77
2017-08-12T06:21:07.728Z,76.33
2017-08-12T06:22:07.718Z,75.66
2017-08-12T06:23:07.699Z,75.27
2017-08-12T06:24:07.682Z,75.18
2017-08-12T06:25:07.672Z,74.41
2017-08-12T06:26:07.343Z,74.13
2017-08-12T06:27:07.327Z,73.17
2017-08-12T06:28:07.629Z,73.27
2017-08-12T06:29:07.354Z,72.98
2017-08-12T06:30:07.611Z,72.41
2017-08-12T06:31:07.592Z,71.93
2017-08-12T06:32:07.579Z,72.02
2017-08-12T06:33:07.249Z,71.93
2017-08-12T06:34:07.549Z,71.36
2017-08-12T06:35:07.224Z,71.16
2017-08-12T06:36:07.521Z,70.78
2017-08-12T06:37:07.507Z,70.68
2017-08-12T06:38:07.185Z,70.21
2017-08-12T06:39:07.480Z,70.11
2017-08-12T06:40:07.466Z,70.01
2017-08-12T06:41:07.148Z,69.82
2017-08-12T06:42:07.515Z,69.73
2017-08-12T06:43:07.431Z,69.25
2017-08-12T06:44:07.100Z,69.44
2017-08-12T06:45:07.395Z,69.25
2017-08-12T06:46:07.392Z,68.96
2017-08-12T06:47:07.376Z,68.68
2017-08-12T06:48:07.361Z,68.77
2017-08-12T06:49:07.344Z,68.58
2017-08-12T06:50:07.328Z,67.82
2017-08-12T06:51:07.001Z,67.82
2017-08-12T06:52:06.986Z,67.91
2017-08-12T06:53:07.032Z,67.82
2017-08-12T06:54:07.269Z,67.53
2017-08-12T06:55:06.949Z,67.43
2017-08-12T06:56:07.242Z,67.91
2017-08-12T06:57:06.914Z,67.53
2017-08-12T06:58:07.217Z,67.43
2017-08-12T06:59:06.898Z,67.14
2017-08-12T07:00:07.186Z,67.34
2017-08-12T07:01:06.863Z,67.05
2017-08-12T07:02:07.161Z,67.14
2017-08-12T07:03:06.834Z,66.86
2017-08-12T07:04:07.141Z,66.38
2017-08-12T07:05:07.136Z,67.14
2017-08-12T07:06:06.795Z,67.34
2017-08-12T07:07:07.090Z,66.57
2017-08-12T07:08:07.083Z,66.76
2017-08-12T07:09:06.755Z,66.76
2017-08-12T07:10:06.736Z,66.96
2017-08-12T07:11:06.729Z,66.28
2017-08-12T07:12:07.026Z,66.47
2017-08-12T07:13:07.008Z,66.76
2017-08-12T07:14:06.994Z,66.76
2017-08-12T07:15:06.684Z,66.38
2017-08-12T07:16:06.661Z,66.76
2017-08-12T07:17:06.958Z,66.57
2017-08-12T07:18:06.940Z,66.76
2017-08-12T07:19:06.928Z,66.57
2017-08-12T07:20:06.913Z,66.96
2017-08-12T07:21:06.590Z,66.47
2017-08-12T07:22:06.572Z,66.57
2017-08-12T07:23:06.563Z,66.38
2017-08-12T07:24:06.545Z,66.47
2017-08-12T07:25:06.847Z,66.28
2017-08-12T07:26:06.834Z,66.19
2017-08-12T07:27:06.507Z,66.28
2017-08-12T07:28:06.493Z,66.19
2017-08-12T07:29:06.789Z,65.81
2017-08-12T07:30:06.477Z,66.09
2017-08-12T07:31:06.760Z,66.19
2017-08-12T07:32:06.747Z,66.76
2017-08-12T07:33:06.735Z,66.47
2017-08-12T07:34:06.723Z,66.38
2017-08-12T07:35:06.719Z,66.76
2017-08-12T07:36:06.383Z,66.41
2017-08-12T07:37:06.686Z,67.05
2017-08-12T07:38:06.670Z,67.34
2017-08-12T07:39:06.859Z,67.53
2017-08-12T07:40:06.638Z,67.56
2017-08-12T07:41:06.626Z,67.56
2017-08-12T07:42:06.611Z,67.76
2017-08-12T07:43:06.597Z,67.85
2017-08-12T07:44:06.585Z,68.13
2017-08-12T07:45:06.268Z,67.94
2017-08-12T07:46:06.567Z,68.8
2017-08-12T07:47:06.555Z,68.8
2017-08-12T07:48:06.537Z,68.71
2017-08-12T07:49:06.522Z,68.33
2017-08-12T07:50:06.502Z,67.94
2017-08-12T07:51:06.495Z,68.04
2017-08-12T07:52:06.486Z,67.94
2017-08-12T07:53:06.469Z,67.85
2017-08-12T07:54:06.457Z,68.52
2017-08-12T07:55:06.439Z,69
2017-08-12T07:56:06.117Z,68.62
2017-08-12T07:57:06.419Z,69.29
2017-08-12T07:58:06.400Z,69.09
2017-08-12T07:59:06.075Z,69.29
2017-08-12T08:00:06.374Z,69.09
2017-08-12T08:01:06.364Z,69.29
2017-08-12T08:02:06.039Z,69
2017-08-12T08:03:06.334Z,68.9
2017-08-12T08:04:06.017Z,69.48
2017-08-12T08:05:06.312Z,69.48
2017-08-12T08:06:06.293Z,69.09
2017-08-12T08:07:05.971Z,69.48
2017-08-12T08:08:05.959Z,69.29
2017-08-12T08:09:06.254Z,69.29
2017-08-12T08:10:06.238Z,69.86
2017-08-12T08:11:05.916Z,70.15
2017-08-12T08:12:06.210Z,70.62
2017-08-12T08:13:06.203Z,70.53
2017-08-12T08:14:06.232Z,70.34
2017-08-12T08:15:05.861Z,70.81
2017-08-12T08:16:06.158Z,71.01
2017-08-12T08:17:06.147Z,70.81
2017-08-12T08:18:05.822Z,70.72
2017-08-12T08:19:06.124Z,70.62
2017-08-12T08:20:06.102Z,71.01
2017-08-12T08:21:06.091Z,71.01
2017-08-12T08:22:06.079Z,71.39
2017-08-12T08:23:06.067Z,70.81
2017-08-12T08:24:06.051Z,73.02
2017-08-12T08:25:06.041Z,73.4
2017-08-12T08:26:06.025Z,73.02
2017-08-12T08:27:05.704Z,72.44
2017-08-12T08:28:06.000Z,72.34
2017-08-12T08:29:05.988Z,72.16
2017-08-12T08:30:05.663Z,72.25
2017-08-12T08:31:05.647Z,74.93
2017-08-12T08:32:05.944Z,73.88
2017-08-12T08:33:05.933Z,74.55
2017-08-12T08:34:05.925Z,73.97
2017-08-12T08:35:05.596Z,73.88
2017-08-12T08:36:05.896Z,73.79
2017-08-12T08:37:05.880Z,73.79
2017-08-12T08:38:06.074Z,73.4
2017-08-12T08:39:05.540Z,73.3
2017-08-12T08:40:05.529Z,73.5
2017-08-12T08:41:05.830Z,74.4
2017-08-12T08:42:05.819Z,73.4
2017-08-12T08:43:05.800Z,73.4
2017-08-12T08:44:05.837Z,73.72
2017-08-12T08:45:05.780Z,74.11
2017-08-12T08:46:05.450Z,72.96
2017-08-12T08:47:05.439Z,75.07
2017-08-12T08:48:05.740Z,74.49
2017-08-12T08:49:05.415Z,74.49
2017-08-12T08:50:05.711Z,73.82
2017-08-12T08:51:05.703Z,74.68
2017-08-12T08:52:05.371Z,74.49
2017-08-12T08:53:05.674Z,74.11
2017-08-12T08:54:05.662Z,73.63
2017-08-12T08:55:05.337Z,73.34
2017-08-12T08:56:05.638Z,73.63
2017-08-12T08:57:05.623Z,73.72
2017-08-12T08:58:05.296Z,73.91
2017-08-12T08:59:05.598Z,73.82
2017-08-12T09:00:05.581Z,73.44
2017-08-12T09:01:05.576Z,72.96
2017-08-12T09:02:05.564Z,73.24
2017-08-12T09:03:05.547Z,72.48
2017-08-12T09:04:05.539Z,72.86
2017-08-12T09:05:05.206Z,73.05
2017-08-12T09:06:05.505Z,72.77
2017-08-12T09:07:05.497Z,72.48
2017-08-12T09:08:05.484Z,73.54
2017-08-12T09:09:05.468Z,73.82
2017-08-12T09:10:05.144Z,73.91
2017-08-12T09:11:05.139Z,73.72
2017-08-12T09:12:05.117Z,73.44
2017-08-12T09:13:05.417Z,73.44
2017-08-12T09:14:05.400Z,72.96
2017-08-12T09:15:05.089Z,73.72
2017-08-12T09:16:05.066Z,72.67
2017-08-12T09:17:05.365Z,73.34
2017-08-12T09:18:05.040Z,72.58
2017-08-12T09:19:05.024Z,72.67
2017-08-12T09:20:05.333Z,72.48
2017-08-12T09:21:05.003Z,72.67
2017-08-12T09:22:04.991Z,72.67
2017-08-12T09:23:05.289Z,73.05
2017-08-12T09:24:05.280Z,73.44
2017-08-12T09:25:05.265Z,72.67
2017-08-12T09:26:04.940Z,73.54
2017-08-12T09:27:04.928Z,73.54
2017-08-12T09:28:04.914Z,73.86
2017-08-12T09:29:05.418Z,73.34
2017-08-12T09:30:05.202Z,73.63
2017-08-12T09:31:04.876Z,73.63
2017-08-12T09:32:05.173Z,73.47
2017-08-12T09:33:05.171Z,73.19
2017-08-12T09:34:05.152Z,73.47
2017-08-12T09:35:05.134Z,73.66
2017-08-12T09:36:05.122Z,73.95
2017-08-12T09:37:05.112Z,73.54
2017-08-12T09:38:04.789Z,73.91
2017-08-12T09:39:05.023Z,72.52
2017-08-12T09:40:05.073Z,73.09
2017-08-12T09:41:05.084Z,73.66
2017-08-12T09:42:04.735Z,74.15
2017-08-12T09:43:05.033Z,73.95
2017-08-12T09:44:05.020Z,74.43
2017-08-12T09:45:05.003Z,73.76
2017-08-12T09:46:04.998Z,74.91
2017-08-12T09:47:05.009Z,74.43
2017-08-12T09:48:04.968Z,74.72
2017-08-12T09:49:04.956Z,74.05
2017-08-12T09:50:04.993Z,73.76
2017-08-12T09:51:04.617Z,73.76
2017-08-12T09:52:04.925Z,74.77
2017-08-12T09:53:04.911Z,74.15
2017-08-12T09:54:04.892Z,73.86
2017-08-12T09:55:04.883Z,73.57
2017-08-12T09:56:04.559Z,73.57
2017-08-12T09:57:04.854Z,73.86
2017-08-12T09:58:04.845Z,73.57
2017-08-12T09:59:04.522Z,73.19
2017-08-12T10:00:04.817Z,73.66
2017-08-12T10:01:04.494Z,73.76
2017-08-12T10:02:04.480Z,73.47
2017-08-12T10:03:04.783Z,73.38
2017-08-12T10:04:04.769Z,72.52
2017-08-12T10:05:04.763Z,72.8
2017-08-12T10:06:04.431Z,72.42
2017-08-12T10:07:04.737Z,72.61
2017-08-12T10:08:04.408Z,73.09
2017-08-12T10:09:04.703Z,72.99
2017-08-12T10:10:04.698Z,73.38
2017-08-12T10:11:04.367Z,72.61
2017-08-12T10:12:04.359Z,72.8
2017-08-12T10:13:04.663Z,72.8
2017-08-12T10:14:04.660Z,72.32
2017-08-12T10:15:04.635Z,71.84
2017-08-12T10:16:04.617Z,71.94
2017-08-12T10:17:04.291Z,71.66
2017-08-12T10:18:04.592Z,71.56
2017-08-12T10:19:04.277Z,71.56
2017-08-12T10:20:04.250Z,71.17
2017-08-12T10:21:04.237Z,70.79
2017-08-12T10:22:04.553Z,70.79
2017-08-12T10:23:04.527Z,70.41
2017-08-12T10:24:04.198Z,70.89
2017-08-12T10:25:04.505Z,70.7
2017-08-12T10:26:04.492Z,71.08
2017-08-12T10:27:04.478Z,70.79
2017-08-12T10:28:04.466Z,71.08
2017-08-12T10:29:04.137Z,71.66
2017-08-12T10:30:04.440Z,72.03
2017-08-12T10:31:04.425Z,71.56
2017-08-12T10:32:04.100Z,71.46
2017-08-12T10:33:04.404Z,71.75
2017-08-12T10:34:04.077Z,72.42
2017-08-12T10:35:04.063Z,73.09
2017-08-12T10:36:04.049Z,73.38
2017-08-12T10:37:04.041Z,73.19
2017-08-12T10:38:04.337Z,72.71
2017-08-12T10:39:04.329Z,72.23
2017-08-12T10:40:04.318Z,71.84
2017-08-12T10:41:04.307Z,72.32
2017-08-12T10:42:04.288Z,72.8
2017-08-12T10:43:04.279Z,72.42
2017-08-12T10:44:03.949Z,71.94
2017-08-12T10:45:03.938Z,72.99
2017-08-12T10:46:04.246Z,72.52
2017-08-12T10:47:03.920Z,72.52
2017-08-12T10:48:04.214Z,72.8
2017-08-12T10:49:04.202Z,73.57
2017-08-12T10:50:03.880Z,74.33
2017-08-12T10:51:03.865Z,73.57
2017-08-12T10:52:04.163Z,73.28
2017-08-12T10:53:04.154Z,72.8
2017-08-12T10:54:04.143Z,72.99
2017-08-12T10:55:04.130Z,72.71
2017-08-12T10:56:04.111Z,72.8
2017-08-12T10:57:04.101Z,72.32
2017-08-12T10:58:03.778Z,72.42
2017-08-12T10:59:03.771Z,72.8
2017-08-12T11:00:03.771Z,72.9
2017-08-12T11:01:03.756Z,72.52
2017-08-12T11:02:04.054Z,73.86
2017-08-12T11:03:04.030Z,73.95
2017-08-12T11:04:04.029Z,73.66
2017-08-12T11:05:04.001Z,73.8
2017-08-12T11:06:03.995Z,74.05
2017-08-12T11:07:03.672Z,73.76
2017-08-12T11:08:03.972Z,74.24
2017-08-12T11:09:03.957Z,73.66
2017-08-12T11:10:03.950Z,74.24
2017-08-12T11:11:03.618Z,74.82
2017-08-12T11:12:03.655Z,74.72
2017-08-12T11:13:03.907Z,74.05
2017-08-12T11:14:03.901Z,74.08
2017-08-12T11:15:03.567Z,74.18
2017-08-12T11:16:03.871Z,73.7
2017-08-12T11:17:03.540Z,72.84
2017-08-12T11:18:03.533Z,73.22
2017-08-12T11:19:03.831Z,73.51
2017-08-12T11:20:03.503Z,73.7
2017-08-12T11:21:03.495Z,73.03
2017-08-12T11:22:03.793Z,73.51
2017-08-12T11:23:03.778Z,72.84
2017-08-12T11:24:03.772Z,72.74
2017-08-12T11:25:03.760Z,72.55
2017-08-12T11:26:03.745Z,72.64
2017-08-12T11:27:03.732Z,72.45
2017-08-12T11:28:03.720Z,72.55
2017-08-12T11:29:03.399Z,71.98
2017-08-12T11:30:03.704Z,72.17
2017-08-12T11:31:03.683Z,72.27
2017-08-12T11:32:03.676Z,71.98
2017-08-12T11:33:03.344Z,72.55
2017-08-12T11:34:03.646Z,72.17
2017-08-12T11:35:03.316Z,72.45
2017-08-12T11:36:03.623Z,72.45
2017-08-12T11:37:03.293Z,71.78
2017-08-12T11:38:03.601Z,71.31
2017-08-12T11:39:03.784Z,71.21
2017-08-12T11:40:03.257Z,71.31
2017-08-12T11:41:03.565Z,71.21
2017-08-12T11:42:03.547Z,71.11
2017-08-12T11:43:03.224Z,71.4
2017-08-12T11:44:03.522Z,70.64
2017-08-12T11:45:03.512Z,71.5
2017-08-12T11:46:03.498Z,72.36
2017-08-12T11:47:03.486Z,73.41
2017-08-12T11:48:03.475Z,73.03
2017-08-12T11:49:03.460Z,73.8
2017-08-12T11:50:03.449Z,73.9
2017-08-12T11:51:03.438Z,73.7
2017-08-12T11:52:03.424Z,73.7
2017-08-12T11:53:03.098Z,74.27
2017-08-12T11:54:03.399Z,74.57
2017-08-12T11:55:03.077Z,74.47
2017-08-12T11:56:03.376Z,75.23
2017-08-12T11:57:03.362Z,74.76
2017-08-12T11:58:03.038Z,74.76
2017-08-12T11:59:03.339Z,74.76
2017-08-12T12:00:03.020Z,75.33
2017-08-12T12:01:03.325Z,75.95
2017-08-12T12:02:03.305Z,75.33
2017-08-12T12:03:03.291Z,75.23
2017-08-12T12:04:03.280Z,76.29
2017-08-12T12:05:03.267Z,76.57
2017-08-12T12:06:03.257Z,76.48
2017-08-12T12:07:03.244Z,77.82
2017-08-12T12:08:03.234Z,76.96
2017-08-12T12:09:03.215Z,75.81
2017-08-12T12:10:03.206Z,75.95
2017-08-12T12:11:03.191Z,76.67
2017-08-12T12:12:02.876Z,77.92
2017-08-12T12:13:03.170Z,77.53
2017-08-12T12:14:03.165Z,76.86
2017-08-12T12:15:03.152Z,76.57
2017-08-12T12:16:02.822Z,77.44
2017-08-12T12:17:03.124Z,77.53
2017-08-12T12:18:03.109Z,76.67
2017-08-12T12:19:03.097Z,76.14
2017-08-12T12:20:02.771Z,75.65
2017-08-12T12:21:03.076Z,76.62
2017-08-12T12:22:02.759Z,76.52
2017-08-12T12:23:03.050Z,76.62
2017-08-12T12:24:02.723Z,76.23
2017-08-12T12:25:02.712Z,76.42
2017-08-12T12:26:03.014Z,75.56
2017-08-12T12:27:03.004Z,76.04
2017-08-12T12:28:02.678Z,76.42
2017-08-12T12:29:02.670Z,77.09
2017-08-12T12:30:02.651Z,77.09
2017-08-12T12:31:02.952Z,77.67
2017-08-12T12:32:02.940Z,77.48
2017-08-12T12:33:02.932Z,78.63
2017-08-12T12:34:02.606Z,78.05
2017-08-12T12:35:02.907Z,78.92
2017-08-12T12:36:02.580Z,78.63
2017-08-12T12:37:02.568Z,78.15
2017-08-12T12:38:03.123Z,78.63
2017-08-12T12:39:02.550Z,78.57
2017-08-12T12:40:02.536Z,78.72
2017-08-12T12:41:02.528Z,79.59
2017-08-12T12:42:02.832Z,79.05
2017-08-12T12:43:02.817Z,79.11
2017-08-12T12:44:02.490Z,78.86
2017-08-12T12:45:02.794Z,79.05
2017-08-12T12:46:02.778Z,79.49
2017-08-12T12:47:02.766Z,79.59
2017-08-12T12:48:02.756Z,79.91
2017-08-12T12:49:02.749Z,79.91
2017-08-12T12:50:02.421Z,80.4
2017-08-12T12:51:02.458Z,79.68
2017-08-12T12:52:02.708Z,79.63
2017-08-12T12:53:02.385Z,80.97
2017-08-12T12:54:02.688Z,81.31
2017-08-12T12:55:02.680Z,80.16